Time;durP1;ratioP1;P1;durP2;ratioP2;P2;SDS_P1;SDS_P2;PMS_P1;PMS_P2;Temp;Humidity;BMP_temperature;BMP_pressure;BME280_temperature;BME280_humidity;BME280_pressure;Samples;Min_cycle;Max_cycle;Signal;HPM_P1;HPM_P2
2022/03/16 00:02:07;;;;;;;;;;;;;;;17.28;44.26;102471.09;5126101;28;19915;-57
2022/03/16 00:04:32;;;;;;;;;;;;;;;17.28;44.47;102472.91;5126136;28;19907;-57
2022/03/16 00:06:57;;;;;;;;;;;;;;;17.28;44.27;102470.22;5126026;28;19952;-57
2022/03/16 00:09:22;;;;;;;;;;;;;;;17.27;44.21;102465.84;5125379;28;20352;-57
2022/03/16 00:11:48;;;;;;;;;;;;;;;17.26;44.33;102461.44;5125751;28;19907;-57
2022/03/16 00:14:13;;;;;;;;;;;;;;;17.26;44.16;102473.06;5124779;28;19975;-57
2022/03/16 00:16:38;;;;;;;;;;;;;;;17.24;44.22;102473.16;5125865;27;19918;-57
2022/03/16 00:19:03;;;;;;;;;;;;;;;17.24;44.16;102462.41;5125760;28;19950;-57
2022/03/16 00:21:28;;;;;;;;;;;;;;;17.24;44.27;102467.78;5125748;28;19916;-58
2022/03/16 00:23:54;;;;;;;;;;;;;;;17.24;44.05;102474.97;5124749;28;19915;-57
2022/03/16 00:26:19;;;;;;;;;;;;;;;17.22;44.04;102469.75;5125724;28;19915;-57
2022/03/16 00:28:44;;;;;;;;;;;;;;;17.22;44.01;102471.56;5125734;28;19908;-57
2022/03/16 00:31:09;;;;;;;;;;;;;;;17.21;44.17;102478.78;5125507;28;19907;-57
2022/03/16 00:33:34;;;;;;;;;;;;;;;17.14;44.15;102468.63;5125569;28;20010;-57
2022/03/16 00:35:59;;;;;;;;;;;;;;;17.21;44.04;102477.94;5107326;28;19907;-57
2022/03/16 00:38:25;;;;;;;;;;;;;;;17.20;44.12;102486.94;5122690;28;19975;-57
2022/03/16 00:40:50;;;;;;;;;;;;;;;17.19;44.04;102488.78;5124634;28;19915;-58
2022/03/16 00:43:15;;;;;;;;;;;;;;;17.18;43.97;102488.91;5125333;28;20014;-58
2022/03/16 00:45:40;;;;;;;;;;;;;;;17.18;43.98;102495.16;5117101;28;20350;-57
2022/03/16 00:48:05;;;;;;;;;;;;;;;17.18;44.08;102494.28;5124636;28;19911;-57
2022/03/16 00:50:32;;;;;;;;;;;;;;;17.17;44.04;102498.81;5125025;28;19907;-57
2022/03/16 00:52:57;;;;;;;;;;;;;;;17.17;44.00;102500.66;5123675;28;19914;-57
2022/03/16 00:55:22;;;;;;;;;;;;;;;17.17;44.12;102495.28;5124807;28;19907;-57
2022/03/16 00:57:47;;;;;;;;;;;;;;;17.16;43.99;102505.16;5125357;28;19922;-57
2022/03/16 01:00:13;;;;;;;;;;;;;;;17.14;43.99;102499.03;5124936;28;19934;-57
2022/03/16 01:02:38;;;;;;;;;;;;;;;17.14;43.78;102501.72;5123416;28;20368;-57
2022/03/16 01:05:03;;;;;;;;;;;;;;;17.15;43.83;102513.31;5125030;28;19911;-57
2022/03/16 01:07:29;;;;;;;;;;;;;;;17.12;43.81;102518.94;5124540;28;19951;-56
2022/03/16 01:09:54;;;;;;;;;;;;;;;17.12;43.92;102517.13;5123886;28;20348;-57
2022/03/16 01:12:20;;;;;;;;;;;;;;;17.12;43.89;102508.19;5124689;28;19916;-56
2022/03/16 01:14:45;;;;;;;;;;;;;;;17.12;43.69;102518.94;5125107;28;19907;-57
2022/03/16 01:17:10;;;;;;;;;;;;;;;17.11;43.71;102515.41;5124443;28;19931;-57
2022/03/16 01:19:36;;;;;;;;;;;;;;;17.09;43.82;102511.97;5124499;28;19918;-58
2022/03/16 01:22:02;;;;;;;;;;;;;;;17.09;43.80;102511.97;5124281;28;19919;-57
2022/03/16 01:24:28;;;;;;;;;;;;;;;17.09;43.85;102511.13;5124488;28;20002;-57
2022/03/16 01:26:53;;;;;;;;;;;;;;;17.06;43.66;102506.84;5124522;28;20044;-57
2022/03/16 01:29:18;;;;;;;;;;;;;;;17.06;43.60;102509.53;5124734;28;19922;-57
2022/03/16 01:31:43;;;;;;;;;;;;;;;17.06;43.62;102500.59;5124463;28;19912;-57
2022/03/16 01:34:08;;;;;;;;;;;;;;;17.05;43.64;102505.13;5124257;28;19911;-57
2022/03/16 01:36:33;;;;;;;;;;;;;;;17.05;43.61;102504.28;5124634;28;19908;-57
2022/03/16 01:38:58;;;;;;;;;;;;;;;17.04;43.55;102503.41;5123414;28;19982;-57
2022/03/16 01:41:24;;;;;;;;;;;;;;;17.03;43.69;102495.47;5124231;28;19918;-57
2022/03/16 01:43:52;;;;;;;;;;;;;;;17.03;43.78;102499.00;5124580;28;19939;-57
2022/03/16 01:46:20;;;;;;;;;;;;;;;17.02;43.61;102497.28;5112416;28;20378;-57
2022/03/16 01:48:45;;;;;;;;;;;;;;;17.01;43.67;102492.91;5104164;28;19908;-58
2022/03/16 01:51:10;;;;;;;;;;;;;;;17.01;43.73;102497.41;5118125;28;19915;-57
2022/03/16 01:53:35;;;;;;;;;;;;;;;17.00;43.55;102501.94;5128576;28;19960;-57
2022/03/16 01:56:00;;;;;;;;;;;;;;;16.98;43.50;102493.13;5127449;28;20367;-57
2022/03/16 01:58:26;;;;;;;;;;;;;;;16.97;43.57;102492.28;5127291;28;19908;-57
2022/03/16 02:00:51;;;;;;;;;;;;;;;16.98;43.69;102493.13;5127303;28;19907;-57
2022/03/16 02:03:16;;;;;;;;;;;;;;;16.97;43.48;102489.59;5128534;28;20052;-57
2022/03/16 02:05:41;;;;;;;;;;;;;;;16.95;43.69;102483.50;5127871;28;19916;-57
2022/03/16 02:08:10;;;;;;;;;;;;;;;16.94;43.45;102484.44;5127900;28;19971;-57
2022/03/16 02:10:35;;;;;;;;;;;;;;;16.94;43.47;102484.44;5128060;28;19907;-57
2022/03/16 02:13:01;;;;;;;;;;;;;;;16.93;43.47;102480.03;5128492;27;20372;-57
2022/03/16 02:15:26;;;;;;;;;;;;;;;16.92;43.51;102475.66;5127662;28;19908;-57
2022/03/16 02:17:54;;;;;;;;;;;;;;;16.92;43.39;102478.34;5109967;28;19949;-57
2022/03/16 02:20:20;;;;;;;;;;;;;;;16.92;43.51;102478.34;5128399;28;19907;-57
2022/03/16 02:22:55;;;;;;;;;;;;;;;16.91;43.53;102475.78;5126384;28;19922;-57
2022/03/16 02:25:20;;;;;;;;;;;;;;;16.90;43.49;102474.03;5127959;28;19911;-57
2022/03/16 02:27:45;;;;;;;;;;;;;;;16.90;43.40;102469.53;5127662;28;20273;-57
2022/03/16 02:30:11;;;;;;;;;;;;;;;16.89;43.55;102475.03;5127917;28;19908;-57
2022/03/16 02:32:36;;;;;;;;;;;;;;;16.89;43.38;102480.41;5127970;28;20570;-57
2022/03/16 02:35:02;;;;;;;;;;;;;;;16.89;43.33;102488.47;5126939;28;19919;-57
2022/03/16 02:37:27;;;;;;;;;;;;;;;16.88;43.40;102484.91;5127724;27;19915;-57
2022/03/16 02:39:52;;;;;;;;;;;;;;;16.88;43.54;102486.75;5127128;28;19915;-57
2022/03/16 02:42:17;;;;;;;;;;;;;;;16.87;43.43;102485.03;5127603;28;19919;-58
2022/03/16 02:44:42;;;;;;;;;;;;;;;16.87;43.42;102483.22;5127877;27;19907;-58
2022/03/16 02:47:08;;;;;;;;;;;;;;;16.87;43.44;102488.59;5127582;28;19912;-57
2022/03/16 02:49:34;;;;;;;;;;;;;;;16.86;43.24;102488.69;5127643;28;19907;-57
2022/03/16 02:51:59;;;;;;;;;;;;;;;16.85;43.45;102490.53;5127601;28;19911;-57
2022/03/16 02:54:24;;;;;;;;;;;;;;;16.85;43.37;102495.88;5126759;28;19908;-57
2022/03/16 02:56:49;;;;;;;;;;;;;;;16.84;43.36;102496.88;5127511;27;19961;-57
2022/03/16 02:59:15;;;;;;;;;;;;;;;16.84;43.34;102502.25;5126928;28;19919;-56
2022/03/16 03:01:40;;;;;;;;;;;;;;;16.83;43.25;102500.53;5126366;28;19950;-57
2022/03/16 03:04:05;;;;;;;;;;;;;;;16.83;43.31;102513.97;5126838;28;19912;-57
2022/03/16 03:06:30;;;;;;;;;;;;;;;16.81;43.23;102505.16;5127352;28;19908;-57
2022/03/16 03:08:56;;;;;;;;;;;;;;;16.82;43.31;102508.69;5125545;28;19951;-57
2022/03/16 03:11:21;;;;;;;;;;;;;;;16.81;43.16;102510.53;5127366;28;19918;-55
2022/03/16 03:13:46;;;;;;;;;;;;;;;16.81;43.10;102513.22;5125909;28;19907;-57
2022/03/16 03:16:11;;;;;;;;;;;;;;;16.81;43.07;102509.66;5127170;28;19930;-57
2022/03/16 03:18:37;;;;;;;;;;;;;;;16.80;43.12;102503.44;5126643;27;19912;-57
2022/03/16 03:21:04;;;;;;;;;;;;;;;16.79;43.12;102512.50;5126945;28;19915;-57
2022/03/16 03:23:29;;;;;;;;;;;;;;;16.79;43.11;102504.44;5126550;28;19919;-58
2022/03/16 03:25:54;;;;;;;;;;;;;;;16.78;43.09;102505.41;5126624;28;20006;-58
2022/03/16 03:28:19;;;;;;;;;;;;;;;16.78;43.11;102505.41;5126973;28;19915;-55
2022/03/16 03:30:44;;;;;;;;;;;;;;;16.78;43.09;102507.22;5126692;28;20341;-57
2022/03/16 03:33:09;;;;;;;;;;;;;;;16.78;43.02;102509.91;5126483;28;19918;-58
2022/03/16 03:35:35;;;;;;;;;;;;;;;16.77;43.20;102508.19;5126793;28;19914;-57
2022/03/16 03:38:00;;;;;;;;;;;;;;;16.76;43.02;102507.34;5117296;28;19908;-57
2022/03/16 03:40:25;;;;;;;;;;;;;;;16.76;43.12;102503.78;5105531;28;20014;-57
2022/03/16 03:42:51;;;;;;;;;;;;;;;16.74;42.95;102509.28;5106173;28;19912;-57
2022/03/16 03:45:16;;;;;;;;;;;;;;;16.75;43.28;102494.88;5113714;28;19912;-57
2022/03/16 03:47:41;;;;;;;;;;;;;;;16.73;43.14;102486.91;5126606;28;21278;-57
2022/03/16 03:50:07;;;;;;;;;;;;;;;16.72;43.02;102477.16;5124770;28;19924;-57
2022/03/16 03:52:32;;;;;;;;;;;;;;;16.71;43.04;102475.41;5126238;28;19919;-57
2022/03/16 03:54:57;;;;;;;;;;;;;;;16.72;43.03;102476.28;5125842;28;19908;-55
2022/03/16 03:57:22;;;;;;;;;;;;;;;16.71;42.92;102474.56;5126482;28;19959;-57
2022/03/16 03:59:48;;;;;;;;;;;;;;;16.70;43.13;102472.88;5126258;28;20406;-57
2022/03/16 04:02:14;;;;;;;;;;;;;;;16.69;43.03;102469.31;5125351;28;20512;-58
2022/03/16 04:04:39;;;;;;;;;;;;;;;16.69;43.05;102465.75;5126274;28;19975;-57
2022/03/16 04:07:04;;;;;;;;;;;;;;;16.68;43.03;102464.91;5126300;28;19928;-58
2022/03/16 04:09:29;;;;;;;;;;;;;;;16.68;42.84;102456.84;5123673;28;19907;-58
2022/03/16 04:11:54;;;;;;;;;;;;;;;16.67;43.08;102455.13;5125970;28;19908;-58
2022/03/16 04:14:19;;;;;;;;;;;;;;;16.68;42.94;102458.69;5126024;28;19908;-57
2022/03/16 04:16:45;;;;;;;;;;;;;;;16.66;43.08;102456.13;5125776;28;20011;-57
2022/03/16 04:19:10;;;;;;;;;;;;;;;16.67;43.06;102452.44;5125885;28;19908;-58
2022/03/16 04:21:35;;;;;;;;;;;;;;;16.66;42.85;102457.94;5125266;28;19915;-57
2022/03/16 04:24:01;;;;;;;;;;;;;;;16.66;43.14;102457.94;5125043;28;19916;-58
2022/03/16 04:26:26;;;;;;;;;;;;;;;16.66;43.07;102452.59;5126233;28;19907;-58
2022/03/16 04:28:51;;;;;;;;;;;;;;;16.65;43.01;102456.22;5125614;28;19907;-58
2022/03/16 04:31:16;;;;;;;;;;;;;;;16.64;42.95;102458.06;5125580;28;19908;-57
2022/03/16 04:33:41;;;;;;;;;;;;;;;16.64;43.01;102454.50;5125586;28;19918;-58
2022/03/16 04:36:07;;;;;;;;;;;;;;;16.62;42.91;102470.75;5124079;28;19915;-57
2022/03/16 04:38:32;;;;;;;;;;;;;;;16.62;43.04;102469.91;5124913;28;19958;-57
2022/03/16 04:40:59;;;;;;;;;;;;;;;16.63;43.03;102468.91;5125012;28;19908;-57
2022/03/16 04:43:24;;;;;;;;;;;;;;;16.61;43.00;102466.34;5124111;28;19919;-58
2022/03/16 04:45:49;;;;;;;;;;;;;;;16.61;42.94;102470.84;5124484;28;19911;-57
2022/03/16 04:48:14;;;;;;;;;;;;;;;16.61;43.10;102470.84;5123785;28;19912;-57
2022/03/16 04:50:40;;;;;;;;;;;;;;;16.61;43.01;102465.47;5125025;28;19907;-57
2022/03/16 04:53:05;;;;;;;;;;;;;;;16.60;42.88;102472.69;5124982;28;19912;-57
2022/03/16 04:55:30;;;;;;;;;;;;;;;16.59;42.93;102473.66;5124757;28;19907;-57
2022/03/16 04:57:55;;;;;;;;;;;;;;;16.58;42.92;102471.94;5123803;28;19914;-57
2022/03/16 05:00:21;;;;;;;;;;;;;;;16.58;42.89;102471.94;5125099;28;19907;-59
2022/03/16 05:02:46;;;;;;;;;;;;;;;16.58;42.84;102468.41;5124924;28;19912;-56
2022/03/16 05:05:11;;;;;;;;;;;;;;;16.58;42.91;102471.94;5125143;28;19907;-57
2022/03/16 05:07:37;;;;;;;;;;;;;;;16.56;42.96;102468.50;5123145;28;19919;-57
2022/03/16 05:10:03;;;;;;;;;;;;;;;16.57;42.99;102466.72;5124274;28;20049;-57
2022/03/16 05:12:35;;;;;;;;;;;;;;;16.57;42.86;102474.75;5125186;28;19908;-57
2022/03/16 05:15:00;;;;;;;;;;;;;;;16.56;42.93;102476.56;5124900;28;19907;-57
2022/03/16 05:17:25;;;;;;;;;;;;;;;16.56;42.90;102473.03;5124834;28;19929;-58
2022/03/16 05:19:51;;;;;;;;;;;;;;;16.56;43.00;102481.09;5124784;28;19907;-58
2022/03/16 05:22:17;;;;;;;;;;;;;;;16.55;42.89;102469.50;5124534;28;20489;-57
2022/03/16 05:24:42;;;;;;;;;;;;;;;16.55;43.05;102471.31;5123650;28;19971;-58
2022/03/16 05:27:07;;;;;;;;;;;;;;;16.54;42.95;102481.22;5118595;28;19933;-57
2022/03/16 05:29:32;;;;;;;;;;;;;;;16.54;43.07;102485.72;5115367;28;19908;-57
2022/03/16 05:31:57;;;;;;;;;;;;;;;16.54;42.86;102489.25;5123913;28;19956;-58
2022/03/16 05:34:22;;;;;;;;;;;;;;;16.54;43.00;102483.91;5118379;28;20045;-58
2022/03/16 05:36:47;;;;;;;;;;;;;;;16.55;43.17;102490.97;5124353;28;19929;-57
2022/03/16 05:39:13;;;;;;;;;;;;;;;16.54;43.09;102491.09;5123349;28;19912;-58
2022/03/16 05:41:38;;;;;;;;;;;;;;;16.54;43.22;102500.00;5123950;28;20371;-57
2022/03/16 05:44:03;;;;;;;;;;;;;;;16.55;43.19;102490.13;5113353;28;20002;-57
2022/03/16 05:46:28;;;;;;;;;;;;;;;16.55;43.21;102488.28;5111336;28;19916;-57
2022/03/16 05:48:53;;;;;;;;;;;;;;;16.56;43.33;102489.13;5110239;28;20019;-56
2022/03/16 05:51:18;;;;;;;;;;;;;;;16.57;43.36;102496.25;5120200;28;19911;-57
2022/03/16 05:53:43;;;;;;;;;;;;;;;16.57;43.33;102491.72;5118337;28;19975;-56
2022/03/16 05:56:09;;;;;;;;;;;;;;;16.58;43.32;102487.22;5119282;28;19920;-57
2022/03/16 05:58:34;;;;;;;;;;;;;;;16.58;43.53;102490.75;5118997;28;19962;-57
2022/03/16 06:00:59;;;;;;;;;;;;;;;16.58;43.44;102498.81;5116630;28;19916;-57
2022/03/16 06:03:24;;;;;;;;;;;;;;;16.59;43.52;102496.97;5116910;28;19968;-57
2022/03/16 06:05:49;;;;;;;;;;;;;;;16.59;43.39;102505.88;5112742;28;19979;-58
2022/03/16 06:08:14;;;;;;;;;;;;;;;16.60;43.68;102502.22;5117584;28;19911;-58
2022/03/16 06:10:40;;;;;;;;;;;;;;;16.61;43.50;102506.63;5116950;28;20044;-58
2022/03/16 06:13:06;;;;;;;;;;;;;;;16.63;43.63;102506.50;5113447;28;19920;-57
2022/03/16 06:15:37;;;;;;;;;;;;;;;16.66;43.51;102507.16;5121434;28;19939;-57
2022/03/16 06:18:02;;;;;;;;;;;;;;;16.67;43.46;102511.53;5109728;28;20034;-57
2022/03/16 06:20:30;;;;;;;;;;;;;;;16.67;43.47;102500.78;5116627;28;19927;-58
2022/03/16 06:22:55;;;;;;;;;;;;;;;16.70;43.63;102499.72;5110966;28;19920;-58
2022/03/16 06:25:20;;;;;;;;;;;;;;;16.70;43.40;102507.78;5111725;28;19915;-57
2022/03/16 06:27:45;;;;;;;;;;;;;;;16.72;43.51;102511.19;5113219;28;19908;-54
2022/03/16 06:30:11;;;;;;;;;;;;;;;16.72;43.55;102513.88;5116732;28;20362;-58
2022/03/16 06:32:36;;;;;;;;;;;;;;;16.73;43.37;102512.94;5116418;28;20455;-56
2022/03/16 06:35:02;;;;;;;;;;;;;;;16.73;43.43;102515.63;5112008;28;19916;-58
2022/03/16 06:37:27;;;;;;;;;;;;;;;16.75;43.66;102505.63;5118231;28;19908;-59
2022/03/16 06:39:53;;;;;;;;;;;;;;;16.76;43.69;102506.47;5117579;28;19915;-57
2022/03/16 06:42:18;;;;;;;;;;;;;;;16.77;43.61;102500.97;5118212;28;19918;-58
2022/03/16 06:44:43;;;;;;;;;;;;;;;16.79;43.72;102508.94;5116090;28;19915;-57
2022/03/16 06:47:08;;;;;;;;;;;;;;;16.79;43.87;102500.88;5120244;28;19908;-60
2022/03/16 06:49:33;;;;;;;;;;;;;;;16.81;43.88;102507.00;5120317;28;19907;-59
2022/03/16 06:51:58;;;;;;;;;;;;;;;16.79;43.87;102501.75;5123881;27;19962;-58
2022/03/16 06:54:23;;;;;;;;;;;;;;;16.79;43.98;102507.13;5116411;28;19908;-57
2022/03/16 06:56:49;;;;;;;;;;;;;;;16.78;43.95;102501.84;5115574;28;19922;-58
2022/03/16 06:59:14;;;;;;;;;;;;;;;16.76;44.08;102504.66;5114302;28;19926;-59
2022/03/16 07:01:39;;;;;;;;;;;;;;;16.76;44.11;102507.34;5112602;28;19907;-57
2022/03/16 07:04:04;;;;;;;;;;;;;;;16.76;44.13;102506.47;5118271;28;19933;-59
2022/03/16 07:06:29;;;;;;;;;;;;;;;16.75;44.06;102502.94;5119293;28;19912;-60
2022/03/16 07:08:55;;;;;;;;;;;;;;;16.74;43.98;102504.78;5124266;28;19983;-60
2022/03/16 07:11:20;;;;;;;;;;;;;;;16.73;43.95;102519.16;5125602;28;19950;-60
2022/03/16 07:16:29;;;;;;;;;;;;;;;16.72;43.89;102509.38;5126629;28;19914;-58
2022/03/16 07:18:55;;;;;;;;;;;;;;;16.74;43.91;102511.97;5125610;28;19912;-59
2022/03/16 07:21:20;;;;;;;;;;;;;;;16.73;43.84;102515.63;5119262;28;19926;-59
2022/03/16 07:23:45;;;;;;;;;;;;;;;16.73;43.77;102510.25;5122909;28;19916;-56
2022/03/16 07:26:10;;;;;;;;;;;;;;;16.75;43.71;102513.69;5122340;28;19929;-59
2022/03/16 07:28:35;;;;;;;;;;;;;;;16.74;43.77;102503.94;5115790;28;19923;-58
2022/03/16 07:31:01;;;;;;;;;;;;;;;16.77;43.61;102503.66;5125683;28;19915;-59
2022/03/16 07:33:26;;;;;;;;;;;;;;;16.79;43.54;102506.25;5126392;28;19914;-59
2022/03/16 07:35:51;;;;;;;;;;;;;;;16.81;43.40;102512.34;5120603;28;19914;-59
2022/03/16 07:38:17;;;;;;;;;;;;;;;16.83;43.39;102503.22;5123009;28;20296;-59
2022/03/16 07:40:42;;;;;;;;;;;;;;;16.86;43.31;102504.81;5122624;28;19912;-58
2022/03/16 07:43:08;;;;;;;;;;;;;;;16.88;43.32;102498.34;5114495;28;19931;-59
2022/03/16 07:45:33;;;;;;;;;;;;;;;16.89;43.19;102499.22;5119333;28;19911;-59
2022/03/16 07:47:59;;;;;;;;;;;;;;;16.90;43.32;102495.53;5109155;28;19915;-59
2022/03/16 07:50:25;;;;;;;;;;;;;;;16.91;43.46;102489.22;5106034;28;19908;-59
2022/03/16 07:52:51;;;;;;;;;;;;;;;16.91;43.39;102483.84;5105593;28;19907;-59
2022/03/16 07:55:16;;;;;;;;;;;;;;;16.90;43.27;102490.16;5105515;28;19957;-60
2022/03/16 07:57:41;;;;;;;;;;;;;;;16.90;43.46;102496.38;5105878;28;19912;-60
2022/03/16 08:00:07;;;;;;;;;;;;;;;16.90;43.21;102485.66;5105042;28;19914;-58
2022/03/16 08:02:33;;;;;;;;;;;;;;;16.90;43.22;102476.72;5124832;28;19926;-59
2022/03/16 08:05:00;;;;;;;;;;;;;;;16.92;43.35;102485.53;5120030;28;19943;-59
2022/03/16 08:07:28;;;;;;;;;;;;;;;16.93;43.36;102477.34;5120250;28;19908;-59
2022/03/16 08:09:54;;;;;;;;;;;;;;;16.95;43.08;102482.63;5113078;28;20422;-58
2022/03/16 08:12:19;;;;;;;;;;;;;;;16.96;43.11;102485.19;5123161;28;19908;-59
2022/03/16 08:14:44;;;;;;;;;;;;;;;16.97;43.14;102486.03;5125648;28;19914;-59
2022/03/16 08:17:09;;;;;;;;;;;;;;;16.98;43.25;102471.63;5111406;28;19908;-60
2022/03/16 08:19:34;;;;;;;;;;;;;;;17.00;43.27;102477.75;5125120;28;19933;-59
2022/03/16 08:21:59;;;;;;;;;;;;;;;17.01;43.28;102476.78;5125580;28;19924;-58
2022/03/16 08:24:25;;;;;;;;;;;;;;;17.04;43.10;102475.69;5125105;28;20052;-59
2022/03/16 08:26:50;;;;;;;;;;;;;;;17.06;42.99;102471.03;5125709;28;19908;-59
2022/03/16 08:29:15;;;;;;;;;;;;;;;17.09;43.28;102477.03;5125438;28;19919;-60
2022/03/16 08:31:40;;;;;;;;;;;;;;;17.12;43.02;102473.25;5125621;28;19912;-59
2022/03/16 08:34:06;;;;;;;;;;;;;;;17.17;43.10;102463.03;5125406;28;19914;-59
2022/03/16 08:36:31;;;;;;;;;;;;;;;17.22;42.85;102464.38;5125816;28;19934;-59
2022/03/16 08:38:57;;;;;;;;;;;;;;;17.27;42.68;102455.09;5124227;28;19911;-59
2022/03/16 08:41:22;;;;;;;;;;;;;;;17.31;42.69;102460.09;5125790;28;19943;-59
2022/03/16 08:43:47;;;;;;;;;;;;;;;17.36;42.54;102468.66;5124993;28;19907;-59
2022/03/16 08:46:12;;;;;;;;;;;;;;;17.41;42.46;102462.91;5125125;28;19918;-59
2022/03/16 08:48:38;;;;;;;;;;;;;;;17.46;42.41;102463.44;5124745;28;19912;-59
2022/03/16 08:51:03;;;;;;;;;;;;;;;17.49;42.46;102463.16;5124918;28;19907;-59
2022/03/16 08:53:28;;;;;;;;;;;;;;;17.52;42.23;102457.56;5124597;28;19933;-59
2022/03/16 08:55:53;;;;;;;;;;;;;;;17.55;42.15;102445.72;5124519;28;19952;-59
2022/03/16 08:58:19;;;;;;;;;;;;;;;17.57;42.27;102449.13;5125119;28;19961;-59
2022/03/16 09:00:44;;;;;;;;;;;;;;;17.58;42.09;102438.22;5123941;28;19918;-59
2022/03/16 09:03:09;;;;;;;;;;;;;;;17.61;42.37;102445.19;5124884;28;19916;-59
2022/03/16 09:05:34;;;;;;;;;;;;;;;17.64;42.25;102442.28;5124703;28;19912;-59
2022/03/16 09:08:00;;;;;;;;;;;;;;;17.65;42.17;102436.75;5124736;28;19915;-59
2022/03/16 09:10:25;;;;;;;;;;;;;;;17.68;42.13;102446.44;5124027;28;19907;-59
2022/03/16 09:12:50;;;;;;;;;;;;;;;17.70;42.16;102436.38;5124851;28;19914;-59
2022/03/16 09:15:15;;;;;;;;;;;;;;;17.72;42.15;102439.81;5124696;28;19907;-59
2022/03/16 09:17:40;;;;;;;;;;;;;;;17.74;42.07;102446.81;5124714;28;19912;-59
2022/03/16 09:20:05;;;;;;;;;;;;;;;17.76;41.98;102438.63;5124553;28;20565;-59
2022/03/16 09:22:31;;;;;;;;;;;;;;;17.77;41.95;102426.88;5124588;28;19998;-59
2022/03/16 09:24:56;;;;;;;;;;;;;;;17.78;42.06;102439.34;5123838;28;19914;-59
2022/03/16 09:27:22;;;;;;;;;;;;;;;17.79;41.99;102427.59;5124623;28;19911;-59
2022/03/16 09:29:47;;;;;;;;;;;;;;;17.79;41.91;102424.91;5124718;28;19915;-59
2022/03/16 09:32:13;;;;;;;;;;;;;;;17.81;41.90;102420.28;5124637;28;19912;-59
2022/03/16 09:34:40;;;;;;;;;;;;;;;17.82;41.91;102424.66;5124605;28;19908;-59
2022/03/16 09:37:06;;;;;;;;;;;;;;;17.84;41.79;102416.47;5124813;28;19979;-59
2022/03/16 09:39:31;;;;;;;;;;;;;;;17.87;41.49;102422.47;5123216;28;19908;-58
2022/03/16 09:41:56;;;;;;;;;;;;;;;17.90;41.48;102419.53;5124416;28;19952;-59
2022/03/16 09:44:22;;;;;;;;;;;;;;;17.91;41.69;102418.53;5124483;28;19912;-59
2022/03/16 09:46:47;;;;;;;;;;;;;;;17.95;41.43;102419.16;5118706;28;20029;-59
2022/03/16 09:49:15;;;;;;;;;;;;;;;17.98;41.38;102413.53;5124502;28;20439;-60
2022/03/16 09:51:41;;;;;;;;;;;;;;;18.02;41.41;102414.13;5124465;28;19912;-59
2022/03/16 09:54:06;;;;;;;;;;;;;;;18.04;41.21;102410.31;5123296;28;20575;-59
2022/03/16 09:56:32;;;;;;;;;;;;;;;18.08;41.40;102421.69;5124663;28;19919;-59
2022/03/16 09:58:57;;;;;;;;;;;;;;;18.09;41.05;102423.38;5124357;28;19907;-60
2022/03/16 10:01:23;;;;;;;;;;;;;;;18.10;41.00;102417.91;5124230;28;19907;-56
2022/03/16 10:03:48;;;;;;;;;;;;;;;18.12;41.28;102423.16;5124110;28;19949;-58
2022/03/16 10:06:15;;;;;;;;;;;;;;;18.13;41.00;102416.78;5124146;28;19968;-59
2022/03/16 10:08:40;;;;;;;;;;;;;;;18.13;41.17;102420.31;5123507;28;20049;-59
2022/03/16 10:14:14;;;;;;;;;;;;;;;18.16;40.95;102416.53;5128415;28;20280;-59
2022/03/16 10:19:43;;;;;;;;;;;;;;;18.19;41.11;102416.28;5128037;28;19914;-60
2022/03/16 10:22:09;;;;;;;;;;;;;;;18.20;40.87;102420.69;5128012;28;19920;-59
2022/03/16 10:24:34;;;;;;;;;;;;;;;18.21;41.06;102419.69;5127282;28;19922;-59
2022/03/16 10:26:59;;;;;;;;;;;;;;;18.22;40.86;102399.84;5127089;28;19907;-59
2022/03/16 10:29:31;;;;;;;;;;;;;;;18.23;40.88;102399.75;5127936;28;19915;-59
2022/03/16 10:32:00;;;;;;;;;;;;;;;18.26;40.97;102406.69;5127699;28;19912;-59
2022/03/16 10:34:25;;;;;;;;;;;;;;;18.27;40.88;102410.25;5128015;28;19908;-59
2022/03/16 10:36:51;;;;;;;;;;;;;;;18.28;40.92;102403.88;5128162;28;19954;-59
2022/03/16 10:39:16;;;;;;;;;;;;;;;18.30;40.95;102420.75;5126495;28;19914;-59
2022/03/16 10:47:11;;;;;;;;;;;;;;;18.34;41.01;102406.06;5125236;28;19927;-59
2022/03/16 10:49:38;;;;;;;;;;;;;;;18.36;40.81;102401.41;5127665;28;19914;-59
2022/03/16 10:52:06;;;;;;;;;;;;;;;18.37;40.91;102400.41;5127415;28;19907;-59
2022/03/16 10:54:32;;;;;;;;;;;;;;;18.37;40.87;102393.19;5126782;27;19907;-59
2022/03/16 10:57:02;;;;;;;;;;;;;;;18.39;40.76;102393.94;5127460;28;19991;-58
2022/03/16 10:59:29;;;;;;;;;;;;;;;18.39;40.75;102393.94;5127180;28;19989;-59
2022/03/16 11:01:54;;;;;;;;;;;;;;;18.40;41.00;102387.56;5126722;28;19911;-59
2022/03/16 11:04:20;;;;;;;;;;;;;;;18.42;40.75;102387.41;5119943;28;19918;-60
2022/03/16 11:06:45;;;;;;;;;;;;;;;18.46;40.87;102386.19;5115838;28;19911;-59
2022/03/16 11:09:11;;;;;;;;;;;;;;;18.48;41.01;102395.00;5124245;28;20399;-59
2022/03/16 11:14:40;;;;;;;;;;;;;;;18.52;41.16;102391.06;5083031;28;19975;-59
2022/03/16 11:17:06;;;;;;;;;;;;;;;18.55;41.10;102404.25;5083010;28;19908;-60
2022/03/16 11:19:31;;;;;;;;;;;;;;;18.56;41.06;102405.09;5083571;28;19930;-59
2022/03/16 11:22:00;;;;;;;;;;;;;;;18.59;41.06;102402.16;5050102;28;19912;-59
2022/03/16 11:24:25;;;;;;;;;;;;;;;18.59;41.06;102381.44;5081994;28;19966;-59
2022/03/16 11:26:51;;;;;;;;;;;;;;;18.63;41.08;102385.59;5083633;28;19909;-59
2022/03/16 11:29:20;;;;;;;;;;;;;;;18.65;41.28;102382.78;5083452;28;19908;-59
2022/03/16 11:31:45;;;;;;;;;;;;;;;18.68;41.41;102371.72;5082740;28;20017;-61
2022/03/16 11:34:11;;;;;;;;;;;;;;;18.70;41.28;102385.97;5066085;28;20281;-59
2022/03/16 11:36:40;;;;;;;;;;;;;;;18.73;41.21;102377.59;5066314;28;19915;-60
2022/03/16 11:39:21;;;;;;;;;;;;;;;18.76;41.43;102382.75;5079033;28;20010;-59
2022/03/16 11:41:53;;;;;;;;;;;;;;;18.79;41.23;102381.63;5080585;28;19908;-59
2022/03/16 11:44:28;;;;;;;;;;;;;;;18.82;41.26;102366.06;5084420;28;19920;-59
2022/03/16 11:46:54;;;;;;;;;;;;;;;18.85;41.39;102359.53;5119233;28;19908;-59
2022/03/16 11:49:28;;;;;;;;;;;;;;;18.87;41.58;102368.34;5125972;28;19935;-59
2022/03/16 11:51:57;;;;;;;;;;;;;;;18.88;41.38;102362.81;5123248;28;19908;-59
2022/03/16 11:54:25;;;;;;;;;;;;;;;18.90;41.47;102362.66;5121632;28;19916;-59
2022/03/16 11:56:53;;;;;;;;;;;;;;;18.91;41.65;102357.16;5109733;28;20608;-59
2022/03/16 11:59:19;;;;;;;;;;;;;;;18.93;41.57;102349.78;5122383;28;20428;-59
2022/03/16 12:01:52;;;;;;;;;;;;;;;18.95;41.67;102344.28;5116372;28;19990;-59
2022/03/16 12:04:30;;;;;;;;;;;;;;;18.96;41.62;102337.91;5119294;28;19912;-59
2022/03/16 12:07:03;;;;;;;;;;;;;;;18.97;41.89;102331.50;5126965;28;19908;-59
2022/03/16 12:09:31;;;;;;;;;;;;;;;18.98;41.88;102328.66;5122537;28;20063;-59
2022/03/16 12:15:09;;;;;;;;;;;;;;;19.00;41.90;102333.94;5120904;28;20018;-59
2022/03/16 12:17:35;;;;;;;;;;;;;;;19.01;41.92;102318.63;5124427;28;20376;-59
2022/03/16 12:20:10;;;;;;;;;;;;;;;19.02;42.02;102315.78;5125344;28;19911;-60
2022/03/16 12:22:39;;;;;;;;;;;;;;;19.03;41.93;102309.44;5121134;28;19927;-58
2022/03/16 12:25:25;;;;;;;;;;;;;;;19.04;42.12;102307.59;5121992;28;19908;-59
2022/03/16 12:30:39;;;;;;;;;;;;;;;19.06;42.16;102314.53;5121494;28;19968;-59
2022/03/16 12:33:04;;;;;;;;;;;;;;;19.07;42.04;102312.69;5124482;28;19912;-59
2022/03/16 12:35:36;;;;;;;;;;;;;;;19.08;42.08;102304.47;5104269;28;19919;-59
2022/03/16 12:38:01;;;;;;;;;;;;;;;19.08;42.21;102311.72;5112789;28;19967;-58
2022/03/16 12:40:29;;;;;;;;;;;;;;;19.10;42.28;102298.94;5116109;28;19942;-59
2022/03/16 12:42:55;;;;;;;;;;;;;;;19.10;42.43;102304.31;5119011;28;19911;-59
2022/03/16 12:45:21;;;;;;;;;;;;;;;19.13;42.53;102298.69;5114530;28;19911;-59
2022/03/16 12:47:47;;;;;;;;;;;;;;;19.11;42.28;102290.69;5117935;28;20275;-58
2022/03/16 12:50:12;;;;;;;;;;;;;;;19.12;42.28;102297.81;5113393;28;19954;-59
2022/03/16 12:52:39;;;;;;;;;;;;;;;19.13;42.45;102294.13;5119212;28;19960;-60